sensor_id;sensor_type;location;lat;lon;timestamp;P1;durP1;ratioP1;P2;durP2;ratioP2
63555;SDS011;49700;48.072;7.800;2023-07-28T00:00:31;4.87;;;2.63;;
63555;SDS011;49700;48.072;7.800;2023-07-28T00:02:56;3.43;;;2.50;;
63555;SDS011;49700;48.072;7.800;2023-07-28T00:05:21;3.37;;;3.07;;
63555;SDS011;49700;48.072;7.800;2023-07-28T00:07:47;3.10;;;2.70;;
63555;SDS011;49700;48.072;7.800;2023-07-28T00:10:12;2.97;;;2.70;;
63555;SDS011;49700;48.072;7.800;2023-07-28T00:12:37;2.60;;;2.37;;
63555;SDS011;49700;48.072;7.800;2023-07-28T00:15:03;2.80;;;2.50;;
63555;SDS011;49700;48.072;7.800;2023-07-28T00:17:29;4.70;;;2.70;;
63555;SDS011;49700;48.072;7.800;2023-07-28T00:19:54;2.63;;;2.43;;
63555;SDS011;49700;48.072;7.800;2023-07-28T00:22:19;2.60;;;2.40;;
63555;SDS011;49700;48.072;7.800;2023-07-28T00:24:45;5.90;;;2.17;;
63555;SDS011;49700;48.072;7.800;2023-07-28T00:27:10;3.03;;;2.60;;
63555;SDS011;49700;48.072;7.800;2023-07-28T00:29:38;3.50;;;2.00;;
63555;SDS011;49700;48.072;7.800;2023-07-28T00:32:03;6.47;;;2.57;;
63555;SDS011;49700;48.072;7.800;2023-07-28T00:34:29;3.00;;;2.10;;
63555;SDS011;49700;48.072;7.800;2023-07-28T00:36:54;3.10;;;2.27;;
63555;SDS011;49700;48.072;7.800;2023-07-28T00:39:19;5.93;;;2.57;;
63555;SDS011;49700;48.072;7.800;2023-07-28T00:41:45;2.47;;;2.13;;
63555;SDS011;49700;48.072;7.800;2023-07-28T00:44:10;3.40;;;2.60;;
63555;SDS011;49700;48.072;7.800;2023-07-28T00:46:36;3.50;;;2.87;;
63555;SDS011;49700;48.072;7.800;2023-07-28T00:49:01;2.60;;;2.40;;
63555;SDS011;49700;48.072;7.800;2023-07-28T00:51:29;2.97;;;2.67;;
63555;SDS011;49700;48.072;7.800;2023-07-28T00:53:54;2.97;;;2.10;;
63555;SDS011;49700;48.072;7.800;2023-07-28T00:56:20;1.50;;;1.40;;
63555;SDS011;49700;48.072;7.800;2023-07-28T00:58:47;3.03;;;1.57;;
63555;SDS011;49700;48.072;7.800;2023-07-28T01:01:13;4.03;;;2.67;;
63555;SDS011;49700;48.072;7.800;2023-07-28T01:03:38;1.70;;;1.60;;
63555;SDS011;49700;48.072;7.800;2023-07-28T01:11:15;2.50;;;2.03;;
63555;SDS011;49700;48.072;7.800;2023-07-28T01:13:40;4.40;;;2.13;;
63555;SDS011;49700;48.072;7.800;2023-07-28T01:16:06;1.93;;;1.80;;
63555;SDS011;49700;48.072;7.800;2023-07-28T01:18:33;5.37;;;2.10;;
63555;SDS011;49700;48.072;7.800;2023-07-28T01:20:59;4.53;;;2.70;;
63555;SDS011;49700;48.072;7.800;2023-07-28T01:23:40;2.77;;;2.57;;
63555;SDS011;49700;48.072;7.800;2023-07-28T01:26:10;4.20;;;2.90;;
63555;SDS011;49700;48.072;7.800;2023-07-28T01:28:38;3.43;;;2.77;;
63555;SDS011;49700;48.072;7.800;2023-07-28T01:31:05;3.30;;;3.00;;
63555;SDS011;49700;48.072;7.800;2023-07-28T01:33:31;2.30;;;1.90;;
63555;SDS011;49700;48.072;7.800;2023-07-28T01:35:57;3.42;;;2.65;;
63555;SDS011;49700;48.072;7.800;2023-07-28T01:38:25;3.57;;;2.37;;
63555;SDS011;49700;48.072;7.800;2023-07-28T01:40:50;3.23;;;2.57;;
63555;SDS011;49700;48.072;7.800;2023-07-28T01:43:16;3.70;;;2.60;;
63555;SDS011;49700;48.072;7.800;2023-07-28T01:45:41;3.00;;;2.43;;
63555;SDS011;49700;48.072;7.800;2023-07-28T01:48:07;2.90;;;2.70;;
63555;SDS011;49700;48.072;7.800;2023-07-28T01:50:34;3.43;;;2.83;;
63555;SDS011;49700;48.072;7.800;2023-07-28T01:53:00;3.83;;;2.80;;
63555;SDS011;49700;48.072;7.800;2023-07-28T01:55:26;3.00;;;2.77;;
63555;SDS011;49700;48.072;7.800;2023-07-28T01:57:58;6.47;;;2.80;;
63555;SDS011;49700;48.072;7.800;2023-07-28T02:00:25;3.77;;;2.60;;
63555;SDS011;49700;48.072;7.800;2023-07-28T02:02:52;3.87;;;2.37;;
63555;SDS011;49700;48.072;7.800;2023-07-28T02:05:18;2.63;;;2.43;;
63555;SDS011;49700;48.072;7.800;2023-07-28T02:07:43;7.87;;;3.40;;
63555;SDS011;49700;48.072;7.800;2023-07-28T02:10:09;3.40;;;3.00;;
63555;SDS011;49700;48.072;7.800;2023-07-28T02:12:35;3.03;;;2.30;;
63555;SDS011;49700;48.072;7.800;2023-07-28T02:15:01;3.53;;;3.00;;
63555;SDS011;49700;48.072;7.800;2023-07-28T02:17:28;2.77;;;2.57;;
63555;SDS011;49700;48.072;7.800;2023-07-28T02:19:54;5.23;;;2.93;;
63555;SDS011;49700;48.072;7.800;2023-07-28T02:22:19;3.53;;;3.23;;
63555;SDS011;49700;48.072;7.800;2023-07-28T02:24:44;3.30;;;2.80;;
63555;SDS011;49700;48.072;7.800;2023-07-28T02:27:10;3.00;;;2.80;;
63555;SDS011;49700;48.072;7.800;2023-07-28T02:29:35;2.73;;;2.53;;
63555;SDS011;49700;48.072;7.800;2023-07-28T02:32:01;2.53;;;2.33;;
63555;SDS011;49700;48.072;7.800;2023-07-28T02:34:26;3.07;;;2.77;;
63555;SDS011;49700;48.072;7.800;2023-07-28T02:36:51;4.27;;;3.00;;
63555;SDS011;49700;48.072;7.800;2023-07-28T02:39:17;4.63;;;2.60;;
63555;SDS011;49700;48.072;7.800;2023-07-28T02:41:42;3.17;;;2.73;;
63555;SDS011;49700;48.072;7.800;2023-07-28T02:44:08;3.53;;;2.53;;
63555;SDS011;49700;48.072;7.800;2023-07-28T02:46:33;3.53;;;3.23;;
63555;SDS011;49700;48.072;7.800;2023-07-28T02:48:59;3.50;;;2.70;;
63555;SDS011;49700;48.072;7.800;2023-07-28T02:51:24;2.80;;;2.33;;
63555;SDS011;49700;48.072;7.800;2023-07-28T02:53:49;3.17;;;2.60;;
63555;SDS011;49700;48.072;7.800;2023-07-28T02:56:15;6.10;;;4.10;;
63555;SDS011;49700;48.072;7.800;2023-07-28T02:58:40;3.30;;;3.00;;
63555;SDS011;49700;48.072;7.800;2023-07-28T03:01:06;3.10;;;2.57;;
63555;SDS011;49700;48.072;7.800;2023-07-28T03:03:35;5.47;;;2.70;;
63555;SDS011;49700;48.072;7.800;2023-07-28T03:06:01;3.20;;;2.93;;
63555;SDS011;49700;48.072;7.800;2023-07-28T03:08:26;2.73;;;2.43;;
63555;SDS011;49700;48.072;7.800;2023-07-28T03:10:59;3.80;;;3.07;;
63555;SDS011;49700;48.072;7.800;2023-07-28T03:13:27;5.90;;;3.30;;
63555;SDS011;49700;48.072;7.800;2023-07-28T03:15:55;3.03;;;2.57;;
63555;SDS011;49700;48.072;7.800;2023-07-28T03:18:22;3.93;;;2.80;;
63555;SDS011;49700;48.072;7.800;2023-07-28T03:20:47;2.83;;;2.63;;
63555;SDS011;49700;48.072;7.800;2023-07-28T03:23:13;4.30;;;3.10;;
63555;SDS011;49700;48.072;7.800;2023-07-28T03:25:39;9.60;;;4.10;;
63555;SDS011;49700;48.072;7.800;2023-07-28T03:28:04;3.00;;;2.70;;
63555;SDS011;49700;48.072;7.800;2023-07-28T03:30:29;3.47;;;3.13;;
63555;SDS011;49700;48.072;7.800;2023-07-28T03:32:55;3.50;;;3.00;;
63555;SDS011;49700;48.072;7.800;2023-07-28T03:35:21;5.30;;;2.60;;
63555;SDS011;49700;48.072;7.800;2023-07-28T03:37:55;2.50;;;2.30;;
63555;SDS011;49700;48.072;7.800;2023-07-28T03:40:21;3.63;;;2.80;;
63555;SDS011;49700;48.072;7.800;2023-07-28T03:42:49;3.50;;;3.20;;
63555;SDS011;49700;48.072;7.800;2023-07-28T03:45:15;2.83;;;2.53;;
63555;SDS011;49700;48.072;7.800;2023-07-28T03:47:41;3.80;;;2.50;;
63555;SDS011;49700;48.072;7.800;2023-07-28T03:50:07;3.40;;;3.10;;
63555;SDS011;49700;48.072;7.800;2023-07-28T03:52:32;4.40;;;2.97;;
63555;SDS011;49700;48.072;7.800;2023-07-28T03:54:58;4.70;;;2.80;;
63555;SDS011;49700;48.072;7.800;2023-07-28T03:57:23;3.07;;;2.70;;
63555;SDS011;49700;48.072;7.800;2023-07-28T03:59:48;3.20;;;2.90;;
63555;SDS011;49700;48.072;7.800;2023-07-28T04:02:14;7.13;;;2.97;;
63555;SDS011;49700;48.072;7.800;2023-07-28T04:04:39;4.23;;;2.70;;
63555;SDS011;49700;48.072;7.800;2023-07-28T04:07:05;4.20;;;3.37;;
63555;SDS011;49700;48.072;7.800;2023-07-28T04:09:31;3.23;;;2.93;;
63555;SDS011;49700;48.072;7.800;2023-07-28T04:11:56;3.80;;;2.40;;
63555;SDS011;49700;48.072;7.800;2023-07-28T04:14:22;3.33;;;3.03;;
63555;SDS011;49700;48.072;7.800;2023-07-28T04:16:47;3.63;;;2.50;;
63555;SDS011;49700;48.072;7.800;2023-07-28T04:19:12;3.53;;;3.17;;
63555;SDS011;49700;48.072;7.800;2023-07-28T04:21:38;3.83;;;2.63;;
63555;SDS011;49700;48.072;7.800;2023-07-28T04:24:08;2.73;;;2.50;;
63555;SDS011;49700;48.072;7.800;2023-07-28T04:26:38;2.90;;;2.60;;
63555;SDS011;49700;48.072;7.800;2023-07-28T04:29:03;3.20;;;2.80;;
63555;SDS011;49700;48.072;7.800;2023-07-28T04:31:30;3.23;;;2.73;;
63555;SDS011;49700;48.072;7.800;2023-07-28T04:33:59;2.60;;;2.40;;
63555;SDS011;49700;48.072;7.800;2023-07-28T04:36:44;3.63;;;2.80;;
63555;SDS011;49700;48.072;7.800;2023-07-28T04:39:09;3.93;;;3.37;;
63555;SDS011;49700;48.072;7.800;2023-07-28T04:41:35;4.57;;;2.70;;
63555;SDS011;49700;48.072;7.800;2023-07-28T04:44:00;3.67;;;2.90;;
63555;SDS011;49700;48.072;7.800;2023-07-28T04:46:29;5.97;;;3.23;;
63555;SDS011;49700;48.072;7.800;2023-07-28T04:48:56;3.57;;;3.27;;
63555;SDS011;49700;48.072;7.800;2023-07-28T04:51:40;3.07;;;2.70;;
63555;SDS011;49700;48.072;7.800;2023-07-28T04:54:24;3.33;;;3.03;;
63555;SDS011;49700;48.072;7.800;2023-07-28T04:56:49;4.20;;;3.50;;
63555;SDS011;49700;48.072;7.800;2023-07-28T04:59:18;6.07;;;3.03;;
63555;SDS011;49700;48.072;7.800;2023-07-28T05:01:44;4.07;;;3.00;;
63555;SDS011;49700;48.072;7.800;2023-07-28T05:04:09;3.70;;;3.03;;
63555;SDS011;49700;48.072;7.800;2023-07-28T05:06:35;3.10;;;2.80;;
63555;SDS011;49700;48.072;7.800;2023-07-28T05:09:00;5.20;;;3.17;;
63555;SDS011;49700;48.072;7.800;2023-07-28T05:11:34;3.00;;;2.80;;
63555;SDS011;49700;48.072;7.800;2023-07-28T05:13:59;2.97;;;2.53;;
63555;SDS011;49700;48.072;7.800;2023-07-28T05:16:25;3.40;;;3.03;;
63555;SDS011;49700;48.072;7.800;2023-07-28T05:19:05;3.63;;;3.03;;
63555;SDS011;49700;48.072;7.800;2023-07-28T05:21:50;3.73;;;2.77;;
63555;SDS011;49700;48.072;7.800;2023-07-28T05:24:18;4.20;;;3.13;;
63555;SDS011;49700;48.072;7.800;2023-07-28T05:26:43;3.90;;;2.20;;
63555;SDS011;49700;48.072;7.800;2023-07-28T05:29:09;6.63;;;3.40;;
63555;SDS011;49700;48.072;7.800;2023-07-28T05:31:35;3.70;;;3.20;;
63555;SDS011;49700;48.072;7.800;2023-07-28T05:34:03;7.70;;;3.95;;
63555;SDS011;49700;48.072;7.800;2023-07-28T05:36:29;3.83;;;3.30;;
63555;SDS011;49700;48.072;7.800;2023-07-28T05:38:58;6.10;;;3.23;;
63555;SDS011;49700;48.072;7.800;2023-07-28T05:41:28;3.87;;;3.00;;
63555;SDS011;49700;48.072;7.800;2023-07-28T05:43:53;4.23;;;3.40;;
63555;SDS011;49700;48.072;7.800;2023-07-28T05:46:19;5.83;;;3.10;;
63555;SDS011;49700;48.072;7.800;2023-07-28T05:48:44;3.30;;;3.00;;
63555;SDS011;49700;48.072;7.800;2023-07-28T05:51:10;2.90;;;2.60;;
63555;SDS011;49700;48.072;7.800;2023-07-28T05:53:35;4.23;;;2.80;;
63555;SDS011;49700;48.072;7.800;2023-07-28T05:56:04;4.30;;;3.90;;
63555;SDS011;49700;48.072;7.800;2023-07-28T05:58:32;5.07;;;3.57;;
63555;SDS011;49700;48.072;7.800;2023-07-28T06:00:58;6.60;;;3.40;;
63555;SDS011;49700;48.072;7.800;2023-07-28T06:03:43;2.67;;;2.33;;
63555;SDS011;49700;48.072;7.800;2023-07-28T06:06:18;4.77;;;3.37;;
63555;SDS011;49700;48.072;7.800;2023-07-28T06:08:44;4.80;;;3.40;;
63555;SDS011;49700;48.072;7.800;2023-07-28T06:11:09;5.17;;;3.13;;
63555;SDS011;49700;48.072;7.800;2023-07-28T06:13:35;4.47;;;2.93;;
63555;SDS011;49700;48.072;7.800;2023-07-28T06:16:01;3.50;;;2.50;;
63555;SDS011;49700;48.072;7.800;2023-07-28T06:18:26;2.80;;;2.57;;
63555;SDS011;49700;48.072;7.800;2023-07-28T06:21:03;4.93;;;2.70;;
63555;SDS011;49700;48.072;7.800;2023-07-28T06:23:29;2.73;;;2.00;;
63555;SDS011;49700;48.072;7.800;2023-07-28T06:25:55;2.77;;;2.30;;
63555;SDS011;49700;48.072;7.800;2023-07-28T06:28:21;4.50;;;2.20;;
63555;SDS011;49700;48.072;7.800;2023-07-28T06:30:47;2.97;;;2.20;;
63555;SDS011;49700;48.072;7.800;2023-07-28T06:33:12;2.20;;;1.97;;
63555;SDS011;49700;48.072;7.800;2023-07-28T06:35:38;4.53;;;2.10;;
63555;SDS011;49700;48.072;7.800;2023-07-28T06:38:03;4.87;;;4.47;;
63555;SDS011;49700;48.072;7.800;2023-07-28T06:40:29;4.70;;;3.33;;
63555;SDS011;49700;48.072;7.800;2023-07-28T06:42:55;2.90;;;2.70;;
63555;SDS011;49700;48.072;7.800;2023-07-28T06:45:21;2.57;;;2.37;;
63555;SDS011;49700;48.072;7.800;2023-07-28T06:47:46;3.30;;;2.30;;
63555;SDS011;49700;48.072;7.800;2023-07-28T06:50:12;3.27;;;2.60;;
63555;SDS011;49700;48.072;7.800;2023-07-28T06:52:38;6.27;;;2.50;;
63555;SDS011;49700;48.072;7.800;2023-07-28T06:55:03;3.33;;;2.60;;
63555;SDS011;49700;48.072;7.800;2023-07-28T06:57:29;2.60;;;2.30;;
63555;SDS011;49700;48.072;7.800;2023-07-28T06:59:55;3.10;;;2.80;;
63555;SDS011;49700;48.072;7.800;2023-07-28T07:02:21;2.83;;;2.53;;
63555;SDS011;49700;48.072;7.800;2023-07-28T07:04:47;3.60;;;3.30;;
63555;SDS011;49700;48.072;7.800;2023-07-28T07:07:12;4.23;;;2.70;;
63555;SDS011;49700;48.072;7.800;2023-07-28T07:09:38;2.80;;;2.50;;
63555;SDS011;49700;48.072;7.800;2023-07-28T07:12:04;3.80;;;3.00;;
63555;SDS011;49700;48.072;7.800;2023-07-28T07:14:29;2.67;;;2.03;;
63555;SDS011;49700;48.072;7.800;2023-07-28T07:16:55;4.50;;;2.77;;
63555;SDS011;49700;48.072;7.800;2023-07-28T07:19:20;2.50;;;2.30;;
63555;SDS011;49700;48.072;7.800;2023-07-28T07:21:46;11.67;;;2.90;;
63555;SDS011;49700;48.072;7.800;2023-07-28T07:24:12;2.87;;;1.90;;
63555;SDS011;49700;48.072;7.800;2023-07-28T07:26:41;2.53;;;2.27;;
63555;SDS011;49700;48.072;7.800;2023-07-28T07:29:07;3.33;;;2.00;;
63555;SDS011;49700;48.072;7.800;2023-07-28T07:31:33;4.60;;;2.70;;
63555;SDS011;49700;48.072;7.800;2023-07-28T07:33:59;3.13;;;1.90;;
63555;SDS011;49700;48.072;7.800;2023-07-28T07:36:25;2.60;;;2.30;;
63555;SDS011;49700;48.072;7.800;2023-07-28T07:38:50;5.07;;;2.77;;
63555;SDS011;49700;48.072;7.800;2023-07-28T07:41:16;9.00;;;3.53;;
63555;SDS011;49700;48.072;7.800;2023-07-28T07:43:45;5.90;;;3.40;;
63555;SDS011;49700;48.072;7.800;2023-07-28T07:46:10;3.07;;;2.07;;
63555;SDS011;49700;48.072;7.800;2023-07-28T07:48:36;4.53;;;2.37;;
63555;SDS011;49700;48.072;7.800;2023-07-28T07:51:01;3.43;;;2.10;;
63555;SDS011;49700;48.072;7.800;2023-07-28T07:53:27;2.63;;;1.70;;
63555;SDS011;49700;48.072;7.800;2023-07-28T07:58:41;3.60;;;2.17;;
63555;SDS011;49700;48.072;7.800;2023-07-28T08:01:07;2.33;;;2.13;;
63555;SDS011;49700;48.072;7.800;2023-07-28T08:03:32;2.80;;;2.30;;
63555;SDS011;49700;48.072;7.800;2023-07-28T08:05:58;3.70;;;2.00;;
63555;SDS011;49700;48.072;7.800;2023-07-28T08:08:23;3.30;;;1.97;;
63555;SDS011;49700;48.072;7.800;2023-07-28T08:10:52;1.80;;;1.60;;
63555;SDS011;49700;48.072;7.800;2023-07-28T08:13:17;3.37;;;2.40;;
63555;SDS011;49700;48.072;7.800;2023-07-28T08:15:43;2.83;;;2.43;;
63555;SDS011;49700;48.072;7.800;2023-07-28T08:18:10;2.30;;;1.80;;
63555;SDS011;49700;48.072;7.800;2023-07-28T08:20:37;2.50;;;2.10;;
63555;SDS011;49700;48.072;7.800;2023-07-28T08:23:03;6.50;;;2.73;;
63555;SDS011;49700;48.072;7.800;2023-07-28T08:25:28;2.20;;;1.93;;
63555;SDS011;49700;48.072;7.800;2023-07-28T08:27:53;3.70;;;1.80;;
63555;SDS011;49700;48.072;7.800;2023-07-28T08:30:19;3.87;;;2.30;;
63555;SDS011;49700;48.072;7.800;2023-07-28T08:32:44;2.70;;;1.93;;
63555;SDS011;49700;48.072;7.800;2023-07-28T08:35:10;2.53;;;1.90;;
63555;SDS011;49700;48.072;7.800;2023-07-28T08:37:36;2.70;;;2.40;;
63555;SDS011;49700;48.072;7.800;2023-07-28T08:40:01;3.73;;;2.00;;
63555;SDS011;49700;48.072;7.800;2023-07-28T08:42:29;4.27;;;1.90;;
63555;SDS011;49700;48.072;7.800;2023-07-28T08:44:55;2.93;;;2.20;;
63555;SDS011;49700;48.072;7.800;2023-07-28T08:47:20;2.83;;;2.47;;
63555;SDS011;49700;48.072;7.800;2023-07-28T08:49:46;6.50;;;2.80;;
63555;SDS011;49700;48.072;7.800;2023-07-28T08:52:14;2.20;;;1.63;;
63555;SDS011;49700;48.072;7.800;2023-07-28T08:54:41;2.83;;;1.80;;
63555;SDS011;49700;48.072;7.800;2023-07-28T08:57:06;3.57;;;2.07;;
63555;SDS011;49700;48.072;7.800;2023-07-28T08:59:34;3.73;;;1.97;;
63555;SDS011;49700;48.072;7.800;2023-07-28T09:02:01;3.27;;;2.13;;
63555;SDS011;49700;48.072;7.800;2023-07-28T09:04:27;4.47;;;1.70;;
63555;SDS011;49700;48.072;7.800;2023-07-28T09:06:53;3.92;;;2.13;;
63555;SDS011;49700;48.072;7.800;2023-07-28T09:09:20;2.60;;;1.93;;
63555;SDS011;49700;48.072;7.800;2023-07-28T09:11:50;2.10;;;1.80;;
63555;SDS011;49700;48.072;7.800;2023-07-28T09:14:17;6.83;;;1.80;;
63555;SDS011;49700;48.072;7.800;2023-07-28T09:16:45;2.87;;;1.93;;
63555;SDS011;49700;48.072;7.800;2023-07-28T09:19:11;2.30;;;1.97;;
63555;SDS011;49700;48.072;7.800;2023-07-28T09:21:37;2.03;;;1.30;;
63555;SDS011;49700;48.072;7.800;2023-07-28T09:24:04;2.00;;;1.50;;
63555;SDS011;49700;48.072;7.800;2023-07-28T09:26:51;5.90;;;1.93;;
63555;SDS011;49700;48.072;7.800;2023-07-28T09:29:18;2.30;;;1.90;;
63555;SDS011;49700;48.072;7.800;2023-07-28T09:31:45;4.07;;;1.70;;
63555;SDS011;49700;48.072;7.800;2023-07-28T09:34:12;2.60;;;1.77;;
63555;SDS011;49700;48.072;7.800;2023-07-28T09:36:48;2.95;;;2.20;;
63555;SDS011;49700;48.072;7.800;2023-07-28T09:39:14;2.43;;;2.07;;
63555;SDS011;49700;48.072;7.800;2023-07-28T09:41:39;2.33;;;1.63;;
63555;SDS011;49700;48.072;7.800;2023-07-28T09:44:05;1.50;;;1.30;;
63555;SDS011;49700;48.072;7.800;2023-07-28T09:46:34;2.20;;;1.90;;
63555;SDS011;49700;48.072;7.800;2023-07-28T09:49:06;3.37;;;2.13;;
63555;SDS011;49700;48.072;7.800;2023-07-28T09:51:35;4.23;;;1.80;;
63555;SDS011;49700;48.072;7.800;2023-07-28T09:54:06;1.60;;;1.30;;
63555;SDS011;49700;48.072;7.800;2023-07-28T09:56:36;2.47;;;1.90;;
63555;SDS011;49700;48.072;7.800;2023-07-28T09:59:04;2.50;;;1.80;;
63555;SDS011;49700;48.072;7.800;2023-07-28T10:01:36;2.73;;;2.27;;
63555;SDS011;49700;48.072;7.800;2023-07-28T10:04:03;1.83;;;1.60;;
63555;SDS011;49700;48.072;7.800;2023-07-28T10:06:29;2.60;;;1.90;;
63555;SDS011;49700;48.072;7.800;2023-07-28T10:08:55;4.10;;;2.20;;
63555;SDS011;49700;48.072;7.800;2023-07-28T10:11:21;2.70;;;1.70;;
63555;SDS011;49700;48.072;7.800;2023-07-28T10:13:47;2.67;;;2.17;;
63555;SDS011;49700;48.072;7.800;2023-07-28T10:16:12;2.33;;;1.90;;
63555;SDS011;49700;48.072;7.800;2023-07-28T10:18:41;2.83;;;1.97;;
63555;SDS011;49700;48.072;7.800;2023-07-28T10:21:16;2.10;;;1.80;;
63555;SDS011;49700;48.072;7.800;2023-07-28T10:23:42;3.17;;;1.83;;
63555;SDS011;49700;48.072;7.800;2023-07-28T10:26:09;1.77;;;1.67;;
63555;SDS011;49700;48.072;7.800;2023-07-28T10:28:35;4.70;;;1.60;;
63555;SDS011;49700;48.072;7.800;2023-07-28T10:31:04;2.67;;;2.07;;
63555;SDS011;49700;48.072;7.800;2023-07-28T10:33:40;1.87;;;1.70;;
63555;SDS011;49700;48.072;7.800;2023-07-28T10:36:17;3.00;;;1.85;;
63555;SDS011;49700;48.072;7.800;2023-07-28T10:39:13;1.90;;;1.70;;
63555;SDS011;49700;48.072;7.800;2023-07-28T10:44:28;2.90;;;1.70;;
63555;SDS011;49700;48.072;7.800;2023-07-28T10:46:54;3.03;;;1.67;;
63555;SDS011;49700;48.072;7.800;2023-07-28T10:49:19;3.70;;;2.30;;
63555;SDS011;49700;48.072;7.800;2023-07-28T10:51:45;2.80;;;1.53;;
63555;SDS011;49700;48.072;7.800;2023-07-28T10:54:11;3.77;;;1.80;;
63555;SDS011;49700;48.072;7.800;2023-07-28T10:56:41;1.87;;;1.70;;
63555;SDS011;49700;48.072;7.800;2023-07-28T10:59:07;2.40;;;1.90;;
63555;SDS011;49700;48.072;7.800;2023-07-28T11:01:33;2.27;;;2.00;;
63555;SDS011;49700;48.072;7.800;2023-07-28T11:04:33;4.00;;;2.37;;
63555;SDS011;49700;48.072;7.800;2023-07-28T11:06:51;3.25;;;2.78;;
63555;SDS011;49700;48.072;7.800;2023-07-28T11:09:17;3.70;;;2.47;;
63555;SDS011;49700;48.072;7.800;2023-07-28T11:11:43;2.93;;;1.77;;
63555;SDS011;49700;48.072;7.800;2023-07-28T11:14:09;4.50;;;2.40;;
63555;SDS011;49700;48.072;7.800;2023-07-28T11:16:35;4.33;;;1.87;;
63555;SDS011;49700;48.072;7.800;2023-07-28T11:19:02;2.90;;;2.10;;
63555;SDS011;49700;48.072;7.800;2023-07-28T11:21:29;3.20;;;2.07;;
63555;SDS011;49700;48.072;7.800;2023-07-28T11:23:55;2.43;;;2.23;;
63555;SDS011;49700;48.072;7.800;2023-07-28T11:26:21;2.23;;;2.00;;
63555;SDS011;49700;48.072;7.800;2023-07-28T11:28:47;4.17;;;1.90;;
63555;SDS011;49700;48.072;7.800;2023-07-28T11:31:13;3.80;;;2.63;;
63555;SDS011;49700;48.072;7.800;2023-07-28T11:33:39;2.50;;;2.30;;
63555;SDS011;49700;48.072;7.800;2023-07-28T11:36:05;3.20;;;2.20;;
63555;SDS011;49700;48.072;7.800;2023-07-28T11:38:31;3.30;;;2.27;;
63555;SDS011;49700;48.072;7.800;2023-07-28T11:40:58;2.17;;;1.73;;
63555;SDS011;49700;48.072;7.800;2023-07-28T11:43:24;3.10;;;1.93;;
63555;SDS011;49700;48.072;7.800;2023-07-28T11:45:50;2.50;;;2.30;;
63555;SDS011;49700;48.072;7.800;2023-07-28T11:48:16;3.63;;;2.07;;
63555;SDS011;49700;48.072;7.800;2023-07-28T11:50:43;4.50;;;2.83;;
63555;SDS011;49700;48.072;7.800;2023-07-28T11:53:10;7.73;;;2.60;;
63555;SDS011;49700;48.072;7.800;2023-07-28T11:55:36;2.83;;;2.30;;
63555;SDS011;49700;48.072;7.800;2023-07-28T11:58:04;3.20;;;2.40;;
63555;SDS011;49700;48.072;7.800;2023-07-28T12:00:31;2.97;;;2.50;;
63555;SDS011;49700;48.072;7.800;2023-07-28T12:03:07;3.60;;;2.60;;
63555;SDS011;49700;48.072;7.800;2023-07-28T12:05:40;2.77;;;2.40;;
63555;SDS011;49700;48.072;7.800;2023-07-28T12:08:38;2.80;;;2.47;;
63555;SDS011;49700;48.072;7.800;2023-07-28T12:11:04;4.60;;;2.80;;
63555;SDS011;49700;48.072;7.800;2023-07-28T12:13:30;3.87;;;2.43;;
63555;SDS011;49700;48.072;7.800;2023-07-28T12:15:55;3.50;;;2.50;;
63555;SDS011;49700;48.072;7.800;2023-07-28T12:18:21;3.37;;;3.03;;
63555;SDS011;49700;48.072;7.800;2023-07-28T12:20:48;4.73;;;3.10;;
63555;SDS011;49700;48.072;7.800;2023-07-28T12:23:18;4.03;;;2.50;;
63555;SDS011;49700;48.072;7.800;2023-07-28T12:25:44;4.37;;;2.80;;
63555;SDS011;49700;48.072;7.800;2023-07-28T12:28:10;4.70;;;3.27;;
63555;SDS011;49700;48.072;7.800;2023-07-28T12:30:36;8.20;;;3.47;;
63555;SDS011;49700;48.072;7.800;2023-07-28T12:33:03;3.30;;;2.70;;
63555;SDS011;49700;48.072;7.800;2023-07-28T12:35:29;3.25;;;2.60;;
63555;SDS011;49700;48.072;7.800;2023-07-28T12:37:57;3.90;;;2.77;;
63555;SDS011;49700;48.072;7.800;2023-07-28T12:40:25;4.47;;;2.90;;
63555;SDS011;49700;48.072;7.800;2023-07-28T12:42:55;3.80;;;2.23;;
63555;SDS011;49700;48.072;7.800;2023-07-28T12:45:21;3.50;;;2.30;;
63555;SDS011;49700;48.072;7.800;2023-07-28T12:47:46;3.80;;;2.60;;
63555;SDS011;49700;48.072;7.800;2023-07-28T12:50:12;3.13;;;2.33;;
63555;SDS011;49700;48.072;7.800;2023-07-28T12:52:37;3.10;;;2.60;;
63555;SDS011;49700;48.072;7.800;2023-07-28T12:55:03;2.50;;;2.27;;
63555;SDS011;49700;48.072;7.800;2023-07-28T12:57:29;3.70;;;2.70;;
63555;SDS011;49700;48.072;7.800;2023-07-28T12:59:54;2.23;;;1.90;;
63555;SDS011;49700;48.072;7.800;2023-07-28T13:02:19;5.50;;;2.50;;
63555;SDS011;49700;48.072;7.800;2023-07-28T13:04:46;4.17;;;2.30;;
63555;SDS011;49700;48.072;7.800;2023-07-28T13:07:11;2.30;;;2.10;;
63555;SDS011;49700;48.072;7.800;2023-07-28T13:09:36;2.93;;;2.37;;
63555;SDS011;49700;48.072;7.800;2023-07-28T13:12:02;3.67;;;2.33;;
63555;SDS011;49700;48.072;7.800;2023-07-28T13:14:28;2.67;;;2.00;;
63555;SDS011;49700;48.072;7.800;2023-07-28T13:16:53;2.90;;;1.63;;
63555;SDS011;49700;48.072;7.800;2023-07-28T13:19:19;3.20;;;1.70;;
63555;SDS011;49700;48.072;7.800;2023-07-28T13:21:44;4.53;;;2.77;;
63555;SDS011;49700;48.072;7.800;2023-07-28T13:24:09;2.23;;;1.80;;
63555;SDS011;49700;48.072;7.800;2023-07-28T13:26:35;2.30;;;1.70;;
63555;SDS011;49700;48.072;7.800;2023-07-28T13:29:01;2.23;;;2.00;;
63555;SDS011;49700;48.072;7.800;2023-07-28T13:31:32;3.00;;;1.90;;
63555;SDS011;49700;48.072;7.800;2023-07-28T13:34:01;2.43;;;1.73;;
63555;SDS011;49700;48.072;7.800;2023-07-28T13:36:27;3.75;;;2.42;;
63555;SDS011;49700;48.072;7.800;2023-07-28T13:38:53;2.30;;;1.77;;
63555;SDS011;49700;48.072;7.800;2023-07-28T13:41:18;3.00;;;2.00;;
63555;SDS011;49700;48.072;7.800;2023-07-28T13:43:44;3.20;;;1.70;;
63555;SDS011;49700;48.072;7.800;2023-07-28T13:46:09;3.50;;;1.70;;
63555;SDS011;49700;48.072;7.800;2023-07-28T13:48:36;3.10;;;2.90;;
63555;SDS011;49700;48.072;7.800;2023-07-28T13:51:04;2.73;;;2.20;;
63555;SDS011;49700;48.072;7.800;2023-07-28T13:53:29;2.07;;;1.40;;
63555;SDS011;49700;48.072;7.800;2023-07-28T13:55:55;1.73;;;1.43;;
63555;SDS011;49700;48.072;7.800;2023-07-28T13:58:20;2.87;;;1.87;;
63555;SDS011;49700;48.072;7.800;2023-07-28T14:00:46;1.50;;;1.40;;
63555;SDS011;49700;48.072;7.800;2023-07-28T14:03:11;2.13;;;1.30;;
63555;SDS011;49700;48.072;7.800;2023-07-28T14:05:37;2.07;;;1.37;;
63555;SDS011;49700;48.072;7.800;2023-07-28T14:08:03;1.50;;;1.20;;
63555;SDS011;49700;48.072;7.800;2023-07-28T14:10:28;1.47;;;1.13;;
63555;SDS011;49700;48.072;7.800;2023-07-28T14:12:54;2.37;;;1.20;;
63555;SDS011;49700;48.072;7.800;2023-07-28T14:15:19;1.43;;;1.00;;
63555;SDS011;49700;48.072;7.800;2023-07-28T14:17:45;1.20;;;1.00;;
63555;SDS011;49700;48.072;7.800;2023-07-28T14:20:10;1.73;;;1.30;;
63555;SDS011;49700;48.072;7.800;2023-07-28T14:22:36;2.10;;;1.50;;
63555;SDS011;49700;48.072;7.800;2023-07-28T14:25:02;3.60;;;1.10;;
63555;SDS011;49700;48.072;7.800;2023-07-28T14:27:28;1.33;;;1.00;;
63555;SDS011;49700;48.072;7.800;2023-07-28T14:29:53;1.20;;;0.90;;
63555;SDS011;49700;48.072;7.800;2023-07-28T14:32:18;1.30;;;0.90;;
63555;SDS011;49700;48.072;7.800;2023-07-28T14:34:44;2.73;;;1.13;;
63555;SDS011;49700;48.072;7.800;2023-07-28T14:37:09;1.17;;;1.03;;
63555;SDS011;49700;48.072;7.800;2023-07-28T14:39:36;1.20;;;0.93;;
63555;SDS011;49700;48.072;7.800;2023-07-28T14:42:02;3.20;;;1.30;;
63555;SDS011;49700;48.072;7.800;2023-07-28T14:44:28;1.30;;;0.93;;
63555;SDS011;49700;48.072;7.800;2023-07-28T14:46:54;1.27;;;0.80;;
63555;SDS011;49700;48.072;7.800;2023-07-28T14:49:20;1.10;;;0.90;;
63555;SDS011;49700;48.072;7.800;2023-07-28T14:51:46;1.03;;;0.90;;
63555;SDS011;49700;48.072;7.800;2023-07-28T14:54:11;1.10;;;1.00;;
63555;SDS011;49700;48.072;7.800;2023-07-28T14:56:37;1.73;;;1.57;;